Huvudsida
METAR-TAF:

METAR-TAF

Flygplatser :

Vardø flygplats. Svartnes

Vardø, Norge

latitud: 70-21N, longitud: 031-03E, höjd: 12 m

Aktuellt väderrapport

Denna rapport gjordes för 1 timme och 48 minuter sedan, klockan 20:20 UTC
Vind 13 kt från sydväst
Temperatur -5°C
Fuktighet 63%
Tryck 1021 hPa
Sikt 10 km eller mer
Inga moln under 1 500 m eller inga cumulonimbus

METAR: ENSS 112020Z 23013KT CAVOK M05/M11 Q1021 RMK WIND 500FT 22014KT

Tid: 23:08 (22:08 UTC)


TAF: saknas

Aktuella väderrapporter och prognoser från 4000 flygplatser (METAR- och TAF-rapporter).

De tillgängliga stationerna syns som gula och röda prickar på kartan.

För musen över prickarna för att se namnen på stationerna.

Klicka sedan för att få väderrapporter och prognoser.

För att ändra kartan: Klicka på de gröna knapparna med ett svart kors på för att zooma in; den gröna knappen med ett streck på för att zooma ut; eller på de gröna pilarna för angränsande kartor.


METAR-TAF: